Time;durP1;ratioP1;P1;durP2;ratioP2;P2;SDS_P1;SDS_P2;PMS_P1;PMS_P2;Temp;Humidity;BMP_temperature;BMP_pressure;BME280_temperature;BME280_humidity;BME280_pressure;Samples;Min_cycle;Max_cycle;Signal;HPM_P1;HPM_P2
2023/10/29 00:02:24;;;;;;;0.97;0.50;;;;;;;;;;10328504;28;20047;-77
2023/10/29 00:07:28;;;;;;;4.53;1.17;;;;;;;;;;10332632;28;20050;-76
2023/10/29 00:12:31;;;;;;;1.52;0.70;;;;;;;;;;10339931;28;20054;-76
2023/10/29 00:17:36;;;;;;;3.63;0.95;;;;;;;;;;10342933;28;20046;-76
2023/10/29 00:22:40;;;;;;;2.53;0.82;;;;;;;;;;10335156;28;20058;-76
2023/10/29 00:27:44;;;;;;;1.98;0.75;;;;;;;;;;10327237;28;20392;-76
2023/10/29 00:32:49;;;;;;;1.27;0.70;;;;;;;;;;10314166;28;20042;-76
2023/10/29 00:37:52;;;;;;;1.27;0.70;;;;;;;;;;10331147;28;20055;-76
2023/10/29 00:42:56;;;;;;;1.65;0.68;;;;;;;;;;10310698;28;20066;-75
2023/10/29 00:48:01;;;;;;;3.80;0.85;;;;;;;;;;10329755;28;20475;-76
2023/10/29 00:53:04;;;;;;;1.10;0.60;;;;;;;;;;10333651;28;20424;-76
2023/10/29 00:58:08;;;;;;;1.50;0.75;;;;;;;;;;10328254;28;20587;-75
2023/10/29 01:03:13;;;;;;;0.63;0.50;;;;;;;;;;10309821;28;20054;-75
2023/10/29 01:08:17;;;;;;;2.22;0.68;;;;;;;;;;10334079;28;20062;-76
2023/10/29 01:13:20;;;;;;;1.52;0.68;;;;;;;;;;10311797;28;20100;-76
2023/10/29 01:18:25;;;;;;;0.70;0.50;;;;;;;;;;10327871;28;20065;-75
2023/10/29 01:23:29;;;;;;;6.22;0.93;;;;;;;;;;10332499;28;20057;-75
2023/10/29 01:28:33;;;;;;;1.35;0.80;;;;;;;;;;10324897;28;20485;-75
2023/10/29 01:33:38;;;;;;;1.88;0.70;;;;;;;;;;10330771;28;20039;-75
2023/10/29 01:38:41;;;;;;;2.95;0.50;;;;;;;;;;10326686;28;20094;-76
2023/10/29 01:43:46;;;;;;;2.00;0.73;;;;;;;;;;10334268;23;20059;-75
2023/10/29 01:48:50;;;;;;;0.75;0.52;;;;;;;;;;10242075;28;20055;-76
2023/10/29 01:53:54;;;;;;;1.20;0.70;;;;;;;;;;10243652;28;20051;-75
2023/10/29 01:58:58;;;;;;;2.08;0.88;;;;;;;;;;10247423;28;20600;-76
2023/10/29 02:04:02;;;;;;;1.33;0.70;;;;;;;;;;10227838;28;20043;-76
2023/10/29 02:09:06;;;;;;;0.82;0.40;;;;;;;;;;10242386;28;20424;-76
2023/10/29 02:14:09;;;;;;;0.52;0.50;;;;;;;;;;10229380;28;20051;-75
2023/10/29 02:19:14;;;;;;;1.30;0.45;;;;;;;;;;10247043;28;20047;-75
2023/10/29 02:24:18;;;;;;;1.55;0.88;;;;;;;;;;10226044;28;20065;-76
2023/10/29 02:29:22;;;;;;;1.33;0.60;;;;;;;;;;10243276;28;20134;-75
2023/10/29 02:34:25;;;;;;;1.25;0.50;;;;;;;;;;10242902;28;20496;-76
2023/10/29 02:39:30;;;;;;;2.17;0.50;;;;;;;;;;10243510;28;20055;-76
2023/10/29 02:44:35;;;;;;;;;;;;;;;;;;10226381;28;20047;-75
2023/10/29 02:49:39;;;;;;;1.55;0.70;;;;;;;;;;10244575;28;20370;-76
2023/10/29 02:54:44;;;;;;;0.80;0.50;;;;;;;;;;10244240;28;20051;-76
2023/10/29 02:59:47;;;;;;;0.75;0.50;;;;;;;;;;10229464;28;20402;-76
2023/10/29 03:04:51;;;;;;;1.42;0.50;;;;;;;;;;10225967;28;20070;-76
2023/10/29 03:09:55;;;;;;;0.70;0.50;;;;;;;;;;10238210;28;20063;-76
2023/10/29 03:15:00;;;;;;;0.40;0.38;;;;;;;;;;10232168;28;20047;-77
2023/10/29 03:20:04;;;;;;;0.43;0.32;;;;;;;;;;10235275;28;20106;-75
2023/10/29 03:25:09;;;;;;;0.40;0.30;;;;;;;;;;10248695;28;20513;-76
2023/10/29 03:30:14;;;;;;;1.10;0.63;;;;;;;;;;10247874;28;20138;-76
2023/10/29 03:35:18;;;;;;;0.52;0.50;;;;;;;;;;10252051;28;20043;-76
2023/10/29 03:40:23;;;;;;;2.05;0.73;;;;;;;;;;10233390;28;20054;-75
2023/10/29 03:45:26;;;;;;;1.13;0.60;;;;;;;;;;10247577;28;20059;-76
2023/10/29 03:50:29;;;;;;;1.50;0.70;;;;;;;;;;10251103;28;20047;-76
2023/10/29 03:55:36;;;;;;;0.63;0.45;;;;;;;;;;10251089;28;20137;-75
2023/10/29 04:00:39;;;;;;;1.73;0.60;;;;;;;;;;10250525;28;20047;-76
2023/10/29 04:05:42;;;;;;;0.80;0.60;;;;;;;;;;10249534;28;20146;-77
2023/10/29 04:10:47;;;;;;;5.22;0.90;;;;;;;;;;10247744;28;20432;-76
2023/10/29 04:15:50;;;;;;;0.68;0.43;;;;;;;;;;10229144;28;20171;-76
2023/10/29 04:20:53;;;;;;;1.35;0.70;;;;;;;;;;10246962;28;20047;-76
2023/10/29 04:25:58;;;;;;;2.85;1.00;;;;;;;;;;10242649;28;20047;-76
2023/10/29 04:31:02;;;;;;;1.52;0.60;;;;;;;;;;10246942;28;20058;-76
2023/10/29 04:36:06;;;;;;;1.10;0.50;;;;;;;;;;10247627;28;20051;-77
2023/10/29 04:41:10;;;;;;;1.92;0.65;;;;;;;;;;10246559;28;20065;-77
2023/10/29 04:46:14;;;;;;;0.50;0.40;;;;;;;;;;10248435;28;20047;-77
2023/10/29 04:51:17;;;;;;;2.45;0.57;;;;;;;;;;10250496;28;20540;-77
2023/10/29 04:56:21;;;;;;;1.17;0.60;;;;;;;;;;10248007;28;20051;-77
2023/10/29 05:01:25;;;;;;;0.47;0.47;;;;;;;;;;10249390;28;20436;-77
2023/10/29 05:06:28;;;;;;;0.65;0.47;;;;;;;;;;10248469;28;20713;-77
2023/10/29 05:11:35;;;;;;;2.63;0.63;;;;;;;;;;10229965;28;20405;-77
2023/10/29 05:16:38;;;;;;;0.90;0.45;;;;;;;;;;10248744;28;20055;-77
2023/10/29 05:21:42;;;;;;;1.50;0.50;;;;;;;;;;10248931;28;20473;-76
2023/10/29 05:26:46;;;;;;;0.68;0.50;;;;;;;;;;10247140;28;20055;-76
2023/10/29 05:31:50;;;;;;;0.77;0.40;;;;;;;;;;10246734;28;20121;-77
2023/10/29 05:36:53;;;;;;;0.43;0.40;;;;;;;;;;10232878;28;20059;-77
2023/10/29 05:41:58;;;;;;;1.15;0.50;;;;;;;;;;10244197;28;20051;-76
2023/10/29 05:47:01;;;;;;;0.85;0.47;;;;;;;;;;10251830;28;20123;-76
2023/10/29 05:52:05;;;;;;;2.10;0.60;;;;;;;;;;10242315;28;20134;-77
2023/10/29 05:57:10;;;;;;;1.23;0.52;;;;;;;;;;10227918;28;20409;-77
2023/10/29 06:02:14;;;;;;;1.40;0.63;;;;;;;;;;10248315;29;20081;-78
2023/10/29 06:07:18;;;;;;;0.93;0.50;;;;;;;;;;10231209;28;20059;-77
2023/10/29 06:12:23;;;;;;;1.42;0.52;;;;;;;;;;10228552;29;20055;-76
2023/10/29 06:17:26;;;;;;;0.52;0.32;;;;;;;;;;10246563;28;20047;-76
2023/10/29 06:22:29;;;;;;;0.45;0.40;;;;;;;;;;10228261;28;20193;-77
2023/10/29 06:27:34;;;;;;;1.55;0.50;;;;;;;;;;10246229;28;20058;-76
2023/10/29 06:32:38;;;;;;;0.57;0.30;;;;;;;;;;10243770;29;20047;-77
2023/10/29 06:37:41;;;;;;;0.57;0.30;;;;;;;;;;10242633;28;20066;-76
2023/10/29 06:42:46;;;;;;;0.28;0.28;;;;;;;;;;10250020;28;20043;-76
2023/10/29 06:47:49;;;;;;;0.25;0.25;;;;;;;;;;10249905;28;20504;-77
2023/10/29 06:52:53;;;;;;;0.30;0.20;;;;;;;;;;10249529;28;20048;-76
2023/10/29 06:57:57;;;;;;;0.20;0.20;;;;;;;;;;10249625;28;20046;-76
2023/10/29 07:03:00;;;;;;;0.35;0.35;;;;;;;;;;10249462;28;20381;-76
2023/10/29 07:08:04;;;;;;;0.90;0.30;;;;;;;;;;10249282;28;20047;-76
2023/10/29 07:13:09;;;;;;;0.40;0.20;;;;;;;;;;10231679;28;20043;-76
2023/10/29 07:18:12;;;;;;;0.30;0.30;;;;;;;;;;10246816;28;20058;-76
2023/10/29 07:23:15;;;;;;;0.30;0.20;;;;;;;;;;10253212;28;20043;-76
2023/10/29 07:28:21;;;;;;;0.95;0.60;;;;;;;;;;10248299;28;20039;-77
2023/10/29 07:33:24;;;;;;;0.60;0.60;;;;;;;;;;10247849;28;20621;-76
2023/10/29 07:38:28;;;;;;;0.63;0.40;;;;;;;;;;10244144;28;21086;-77
2023/10/29 07:43:33;;;;;;;0.57;0.43;;;;;;;;;;10253580;23;20120;-76
2023/10/29 07:48:38;;;;;;;0.30;0.30;;;;;;;;;;10321689;28;20050;-76
2023/10/29 07:53:42;;;;;;;0.40;0.40;;;;;;;;;;10339710;28;20046;-76
2023/10/29 07:58:59;;;;;;;0.43;0.32;;;;;;;;;;10332385;28;20045;-76
2023/10/29 08:04:04;;;;;;;0.43;0.30;;;;;;;;;;10316357;28;20488;-76
2023/10/29 08:09:08;;;;;;;0.30;0.30;;;;;;;;;;10305034;28;20055;-76
2023/10/29 08:14:13;;;;;;;0.35;0.20;;;;;;;;;;10332160;28;20420;-76
2023/10/29 08:19:17;;;;;;;0.65;0.55;;;;;;;;;;10336808;28;20082;-76
2023/10/29 08:24:37;;;;;;;;;;;;;;;;;;;;;
2023/10/29 08:30:33;;;;;;;1.25;0.40;;;;;;;;;;10328137;28;20061;-76
2023/10/29 08:41:23;;;;;;;1.60;0.77;;;;;;;;;;10207419;28;20068;-76
2023/10/29 08:46:29;;;;;;;;;;;;;;;;;;10333151;28;20512;-76
2023/10/29 08:51:56;;;;;;;0.50;0.35;;;;;;;;;;10308750;28;19922;-76
2023/10/29 08:57:06;;;;;;;0.80;0.30;;;;;;;;;;10170413;23;20119;-76
2023/10/29 09:02:42;;;;;;;0.32;0.32;;;;;;;;;;10312974;28;20049;-76
2023/10/29 09:15:41;;;;;;;1.33;0.57;;;;;;;;;;10128935;29;20051;-75
2023/10/29 09:22:26;;;;;;;;;;;;;;;;;;;;;
2023/10/29 09:28:35;;;;;;;1.63;0.40;;;;;;;;;;10398361;23;20054;-75
2023/10/29 10:43:20;;;;;;;0.73;0.60;;;;;;;;;;10422380;23;20055;-85
2023/10/29 10:48:25;;;;;;;0.52;0.30;;;;;;;;;;10182040;29;20104;-85
2023/10/29 10:53:29;;;;;;;1.02;0.50;;;;;;;;;;10207605;29;20055;-85
2023/10/29 10:58:35;;;;;;;0.77;0.40;;;;;;;;;;10188999;28;20217;-85
2023/10/29 11:03:39;;;;;;;0.90;0.40;;;;;;;;;;10191549;28;20070;-86
2023/10/29 11:08:42;;;;;;;0.65;0.30;;;;;;;;;;10196846;28;20059;-86
2023/10/29 11:13:48;;;;;;;0.43;0.32;;;;;;;;;;10194180;29;20055;-87
2023/10/29 11:18:51;;;;;;;0.57;0.40;;;;;;;;;;10195159;29;20382;-88
2023/10/29 11:24:18;;;;;;;0.25;0.25;;;;;;;;;;10192847;29;20044;-87
2023/10/29 11:29:45;;;;;;;0.85;0.30;;;;;;;;;;10188807;29;20082;-87
2023/10/29 11:34:49;;;;;;;0.63;0.57;;;;;;;;;;10200541;28;20426;-87
2023/10/29 11:39:53;;;;;;;2.10;0.80;;;;;;;;;;10192691;29;20476;-88
2023/10/29 11:45:34;;;;;;;1.73;0.50;;;;;;;;;;10199342;29;20054;-89
2023/10/29 11:50:39;;;;;;;0.93;0.35;;;;;;;;;;10208676;28;20090;-87
2023/10/29 11:55:44;;;;;;;0.40;0.30;;;;;;;;;;10189952;28;20476;-87
2023/10/29 12:00:48;;;;;;;0.30;0.22;;;;;;;;;;10208243;29;20170;-87
2023/10/29 12:05:54;;;;;;;0.30;0.30;;;;;;;;;;10191847;29;20063;-87
2023/10/29 12:10:58;;;;;;;0.55;0.40;;;;;;;;;;10185209;29;20545;-86
2023/10/29 12:16:02;;;;;;;0.32;0.30;;;;;;;;;;10199779;29;20047;-87
2023/10/29 12:21:09;;;;;;;0.32;0.30;;;;;;;;;;10196829;28;20047;-88
2023/10/29 12:26:13;;;;;;;0.55;0.40;;;;;;;;;;10190166;28;20107;-89
2023/10/29 12:31:25;;;;;;;0.93;0.40;;;;;;;;;;10219755;29;20098;-89
2023/10/29 12:36:30;;;;;;;0.55;0.43;;;;;;;;;;10210006;28;20142;-89
2023/10/29 12:41:34;;;;;;;0.52;0.30;;;;;;;;;;10197770;28;20375;-88
2023/10/29 12:46:49;;;;;;;1.23;0.30;;;;;;;;;;10210947;28;20079;-88
2023/10/29 12:51:54;;;;;;;0.20;0.20;;;;;;;;;;10180284;29;20138;-88
2023/10/29 12:57:01;;;;;;;0.20;0.20;;;;;;;;;;10222348;28;20530;-88
2023/10/29 13:02:09;;;;;;;0.28;0.28;;;;;;;;;;10190283;29;20062;-88
2023/10/29 13:07:24;;;;;;;1.88;0.50;;;;;;;;;;10213148;29;20185;-88
2023/10/29 13:12:30;;;;;;;0.90;0.30;;;;;;;;;;10212548;28;20079;-87
2023/10/29 13:17:34;;;;;;;1.42;0.38;;;;;;;;;;10196226;29;20048;-88
2023/10/29 13:22:40;;;;;;;0.20;0.20;;;;;;;;;;10201957;29;20070;-88
2023/10/29 13:27:44;;;;;;;0.25;0.15;;;;;;;;;;10201147;29;20424;-88
2023/10/29 13:32:48;;;;;;;0.22;0.22;;;;;;;;;;10189766;29;20057;-88
2023/10/29 13:37:53;;;;;;;0.40;0.20;;;;;;;;;;10193782;29;20044;-88
2023/10/29 13:42:57;;;;;;;0.20;0.10;;;;;;;;;;10190257;29;20106;-87
2023/10/29 13:48:00;;;;;;;0.10;0.10;;;;;;;;;;10186262;28;20059;-88
2023/10/29 13:53:05;;;;;;;0.20;0.20;;;;;;;;;;10195988;29;20056;-86
2023/10/29 13:58:09;;;;;;;0.20;0.10;;;;;;;;;;10176856;29;20499;-87
2023/10/29 14:03:13;;;;;;;0.10;0.10;;;;;;;;;;10206618;28;20054;-87
2023/10/29 14:08:18;;;;;;;0.20;0.10;;;;;;;;;;10187119;29;20043;-86
2023/10/29 14:13:24;;;;;;;0.10;0.10;;;;;;;;;;10186340;29;20048;-87
2023/10/29 14:18:30;;;;;;;1.05;0.38;;;;;;;;;;10190347;29;20052;-87
2023/10/29 14:23:35;;;;;;;0.30;0.30;;;;;;;;;;10186730;29;20138;-87
2023/10/29 14:28:38;;;;;;;0.10;0.10;;;;;;;;;;10182979;29;20047;-87
2023/10/29 14:33:42;;;;;;;0.10;0.10;;;;;;;;;;10215037;28;20059;-86
2023/10/29 14:38:47;;;;;;;0.17;0.17;;;;;;;;;;10184543;28;20047;-87
2023/10/29 14:43:51;;;;;;;0.10;0.10;;;;;;;;;;10186478;29;20060;-87
2023/10/29 14:48:55;;;;;;;0.10;0.10;;;;;;;;;;10182810;28;20081;-86
2023/10/29 14:54:01;;;;;;;0.30;0.30;;;;;;;;;;10195102;28;20047;-88
2023/10/29 14:59:07;;;;;;;0.63;0.52;;;;;;;;;;10176924;29;20071;-88
2023/10/29 15:04:11;;;;;;;0.50;0.20;;;;;;;;;;10175675;29;20052;-87
2023/10/29 15:09:17;;;;;;;0.75;0.30;;;;;;;;;;10188759;29;20051;-88
2023/10/29 15:14:21;;;;;;;0.22;0.13;;;;;;;;;;10196592;29;20515;-88
2023/10/29 15:19:25;;;;;;;1.08;0.28;;;;;;;;;;10190549;29;20051;-87
2023/10/29 15:24:37;;;;;;;0.20;0.20;;;;;;;;;;10181807;28;20056;-88
2023/10/29 15:29:42;;;;;;;0.52;0.20;;;;;;;;;;10211033;29;20051;-87
2023/10/29 15:34:46;;;;;;;0.20;0.20;;;;;;;;;;10214041;29;20059;-88
2023/10/29 15:39:51;;;;;;;0.88;0.20;;;;;;;;;;10186575;28;20063;-88
2023/10/29 15:44:54;;;;;;;0.40;0.15;;;;;;;;;;10187553;29;20059;-88
2023/10/29 15:49:59;;;;;;;0.20;0.20;;;;;;;;;;10194493;29;20054;-87
2023/10/29 15:55:10;;;;;;;0.20;0.20;;;;;;;;;;10202484;29;20062;-87
2023/10/29 16:00:23;;;;;;;0.88;0.30;;;;;;;;;;10213373;29;20048;-88
2023/10/29 16:05:32;;;;;;;0.30;0.30;;;;;;;;;;10195278;28;20052;-87
2023/10/29 16:10:40;;;;;;;0.40;0.30;;;;;;;;;;10206887;29;20058;-86
2023/10/29 16:15:44;;;;;;;0.57;0.30;;;;;;;;;;10188302;29;20212;-87
2023/10/29 16:20:52;;;;;;;0.50;0.50;;;;;;;;;;10198662;29;20060;-90
2023/10/29 16:25:57;;;;;;;0.40;0.35;;;;;;;;;;10218161;29;20056;-89
2023/10/29 16:31:02;;;;;;;0.60;0.30;;;;;;;;;;10197110;28;20332;-89
2023/10/29 16:36:07;;;;;;;0.40;0.30;;;;;;;;;;10200956;28;20130;-89
2023/10/29 16:41:16;;;;;;;0.30;0.30;;;;;;;;;;10199312;29;20075;-89
2023/10/29 16:46:22;;;;;;;1.33;0.43;;;;;;;;;;10219870;28;20044;-88
2023/10/29 16:51:26;;;;;;;1.95;0.57;;;;;;;;;;10213863;29;20450;-88
2023/10/29 16:56:31;;;;;;;0.68;0.43;;;;;;;;;;10198492;29;20056;-91
2023/10/29 17:01:36;;;;;;;0.73;0.30;;;;;;;;;;10207930;29;20083;-88
2023/10/29 17:06:40;;;;;;;0.38;0.30;;;;;;;;;;10213901;29;20047;-91
2023/10/29 17:11:47;;;;;;;0.85;0.43;;;;;;;;;;10208976;29;20052;-91
2023/10/29 17:16:51;;;;;;;0.32;0.30;;;;;;;;;;10200567;29;20055;-90
2023/10/29 17:21:57;;;;;;;1.45;0.95;;;;;;;;;;10202064;29;20474;-91
2023/10/29 17:27:03;;;;;;;1.33;0.52;;;;;;;;;;10190839;29;20048;-89
2023/10/29 17:32:07;;;;;;;1.20;0.73;;;;;;;;;;10186915;29;20122;-88
2023/10/29 17:37:16;;;;;;;1.58;0.70;;;;;;;;;;10185784;29;20119;-89
2023/10/29 17:42:23;;;;;;;1.98;1.08;;;;;;;;;;10198303;29;20048;-89
2023/10/29 17:47:27;;;;;;;;;;;;;;;;;;10190362;29;20051;-88
2023/10/29 17:52:30;;;;;;;0.57;0.50;;;;;;;;;;10209757;29;19926;-91
2023/10/29 17:57:35;;;;;;;1.30;0.73;;;;;;;;;;10202616;29;20139;-88
2023/10/29 18:02:40;;;;;;;1.33;1.10;;;;;;;;;;10200868;29;20378;-89
2023/10/29 18:07:44;;;;;;;2.70;0.90;;;;;;;;;;10198077;29;20088;-88
2023/10/29 18:12:49;;;;;;;1.00;0.65;;;;;;;;;;10188388;29;20085;-89
2023/10/29 18:17:53;;;;;;;0.95;0.90;;;;;;;;;;10208500;29;20523;-90
2023/10/29 18:22:59;;;;;;;1.23;0.90;;;;;;;;;;10183292;29;20051;-89
2023/10/29 18:28:14;;;;;;;1.60;0.73;;;;;;;;;;10214663;29;20259;-90
2023/10/29 18:33:18;;;;;;;2.10;0.95;;;;;;;;;;10185585;29;20511;-87
2023/10/29 18:38:21;;;;;;;1.75;0.77;;;;;;;;;;10213478;29;20039;-89
2023/10/29 18:43:26;;;;;;;2.00;0.50;;;;;;;;;;10222857;29;20074;-87
2023/10/29 18:48:30;;;;;;;1.38;1.00;;;;;;;;;;10189962;29;20058;-88
2023/10/29 18:53:37;;;;;;;2.03;0.95;;;;;;;;;;10236269;28;20055;-92
2023/10/29 18:58:44;;;;;;;1.60;1.10;;;;;;;;;;10255014;28;20395;-85
2023/10/29 19:03:47;;;;;;;;;;;;;;;;;;10241267;28;20138;-86
2023/10/29 19:08:51;;;;;;;1.42;0.65;;;;;;;;;;10234275;28;19937;-86
2023/10/29 19:13:56;;;;;;;2.90;0.85;;;;;;;;;;10222461;28;20055;-85
2023/10/29 19:19:00;;;;;;;1.80;0.65;;;;;;;;;;10232428;28;20094;-84
2023/10/29 19:24:05;;;;;;;2.42;0.70;;;;;;;;;;10230695;28;20601;-85
2023/10/29 19:29:10;;;;;;;1.08;0.50;;;;;;;;;;10220819;28;20047;-86
2023/10/29 19:34:15;;;;;;;1.08;0.60;;;;;;;;;;10232476;28;20526;-85
2023/10/29 19:39:20;;;;;;;1.38;0.70;;;;;;;;;;10216186;28;20090;-86
2023/10/29 20:02:14;;;;;;;1.73;0.52;;;;;;;;;;10672823;23;20039;-87
2023/10/29 20:07:18;;;;;;;0.52;0.40;;;;;;;;;;10179520;29;20131;-86
2023/10/29 20:12:21;;;;;;;0.98;0.52;;;;;;;;;;10189275;29;20135;-87
2023/10/29 20:17:26;;;;;;;1.52;0.70;;;;;;;;;;10198366;29;20050;-86
2023/10/29 20:22:29;;;;;;;2.75;0.90;;;;;;;;;;10174158;29;20413;-87
2023/10/29 20:27:35;;;;;;;3.80;1.15;;;;;;;;;;10204165;29;20055;-86
2023/10/29 20:32:40;;;;;;;1.65;0.65;;;;;;;;;;10188323;29;20055;-86
2023/10/29 20:37:44;;;;;;;4.55;0.88;;;;;;;;;;10183167;29;20675;-86
2023/10/29 20:42:47;;;;;;;2.15;0.80;;;;;;;;;;10182356;29;20127;-86
2023/10/29 20:47:52;;;;;;;1.17;0.68;;;;;;;;;;10182614;29;20127;-85
2023/10/29 20:52:58;;;;;;;2.60;0.70;;;;;;;;;;10185889;29;20075;-86
2023/10/29 20:58:02;;;;;;;1.85;0.88;;;;;;;;;;10181466;29;20052;-87
2023/10/29 21:03:07;;;;;;;1.70;0.68;;;;;;;;;;10184185;29;20139;-86
2023/10/29 21:08:10;;;;;;;1.02;0.57;;;;;;;;;;10184964;29;20055;-86
2023/10/29 21:13:14;;;;;;;0.95;0.50;;;;;;;;;;10180622;29;20035;-85
2023/10/29 21:18:20;;;;;;;0.77;0.57;;;;;;;;;;10188161;29;20135;-86
2023/10/29 21:23:24;;;;;;;1.33;0.60;;;;;;;;;;10185004;29;20142;-85
2023/10/29 21:28:28;;;;;;;2.53;0.68;;;;;;;;;;10186908;29;20519;-86
2023/10/29 21:33:33;;;;;;;2.53;0.80;;;;;;;;;;10175262;29;20122;-84
2023/10/29 21:38:37;;;;;;;2.07;0.90;;;;;;;;;;10189193;29;20083;-85
2023/10/29 21:43:40;;;;;;;1.60;0.80;;;;;;;;;;10182470;29;20075;-85
2023/10/29 21:48:45;;;;;;;2.90;0.93;;;;;;;;;;10189093;29;20069;-84
2023/10/29 21:53:48;;;;;;;2.67;0.63;;;;;;;;;;10184565;29;20056;-84
2023/10/29 21:58:52;;;;;;;1.15;0.60;;;;;;;;;;10174778;29;20091;-85
2023/10/29 22:03:57;;;;;;;3.88;0.80;;;;;;;;;;10186174;28;20143;-87
2023/10/29 22:09:02;;;;;;;1.80;0.53;;;;;;;;;;10191866;29;20103;-85
2023/10/29 22:14:05;;;;;;;0.85;0.68;;;;;;;;;;10188432;29;20075;-85
2023/10/29 22:19:10;;;;;;;1.42;0.60;;;;;;;;;;10187664;29;20071;-85
2023/10/29 22:24:13;;;;;;;1.35;0.47;;;;;;;;;;10203677;29;20155;-86
2023/10/29 22:29:16;;;;;;;2.70;0.40;;;;;;;;;;10187263;29;20048;-86
2023/10/29 22:34:21;;;;;;;0.82;0.55;;;;;;;;;;10188376;29;20533;-86
2023/10/29 22:39:25;;;;;;;1.35;0.40;;;;;;;;;;10192653;29;20142;-85
2023/10/29 22:44:28;;;;;;;0.93;0.50;;;;;;;;;;10186184;29;20055;-85
2023/10/29 22:49:33;;;;;;;2.05;0.50;;;;;;;;;;10191377;29;20110;-85
2023/10/29 22:54:36;;;;;;;1.35;0.70;;;;;;;;;;10185664;29;20051;-84
2023/10/29 22:59:39;;;;;;;1.60;0.50;;;;;;;;;;10203378;29;20636;-87
2023/10/29 23:04:44;;;;;;;2.05;0.40;;;;;;;;;;10201382;29;20162;-85
2023/10/29 23:09:47;;;;;;;0.70;0.35;;;;;;;;;;10186549;29;20130;-84
2023/10/29 23:14:51;;;;;;;2.22;0.50;;;;;;;;;;10184238;29;20713;-85
2023/10/29 23:19:56;;;;;;;1.35;0.60;;;;;;;;;;10202251;29;20071;-87
2023/10/29 23:24:59;;;;;;;2.03;0.65;;;;;;;;;;10188140;29;20048;-85
2023/10/29 23:30:03;;;;;;;2.63;1.08;;;;;;;;;;10185220;29;20044;-84
2023/10/29 23:35:09;;;;;;;2.38;0.80;;;;;;;;;;10207951;28;20526;-86
2023/10/29 23:40:13;;;;;;;1.70;0.73;;;;;;;;;;10208279;29;20047;-86
2023/10/29 23:45:17;;;;;;;1.23;0.60;;;;;;;;;;10190399;29;20514;-85
2023/10/29 23:50:21;;;;;;;2.88;0.80;;;;;;;;;;10184604;29;20131;-86
2023/10/29 23:55:28;;;;;;;1.80;0.95;;;;;;;;;;10192807;29;20052;-86
